sensor_id;sensor_type;location;lat;lon;timestamp;P1;durP1;ratioP1;P2;durP2;ratioP2
6249;SDS011;3158;52.148;11.568;2022-07-01T00:00:55;13.32;;;12.43;;
6249;SDS011;3158;52.148;11.568;2022-07-01T00:05:56;14.15;;;13.05;;
6249;SDS011;3158;52.148;11.568;2022-07-01T00:10:57;14.35;;;13.25;;
6249;SDS011;3158;52.148;11.568;2022-07-01T00:15:58;13.88;;;12.68;;
6249;SDS011;3158;52.148;11.568;2022-07-01T00:20:59;13.80;;;12.70;;
6249;SDS011;3158;52.148;11.568;2022-07-01T00:26:03;15.30;;;14.15;;
6249;SDS011;3158;52.148;11.568;2022-07-01T00:31:04;14.32;;;13.13;;
6249;SDS011;3158;52.148;11.568;2022-07-01T00:36:05;15.35;;;14.23;;
6249;SDS011;3158;52.148;11.568;2022-07-01T00:41:06;15.23;;;13.93;;
6249;SDS011;3158;52.148;11.568;2022-07-01T00:46:07;16.02;;;14.57;;
6249;SDS011;3158;52.148;11.568;2022-07-01T00:51:09;17.83;;;16.10;;
6249;SDS011;3158;52.148;11.568;2022-07-01T00:56:10;16.75;;;15.25;;
6249;SDS011;3158;52.148;11.568;2022-07-01T01:01:11;17.05;;;15.45;;
6249;SDS011;3158;52.148;11.568;2022-07-01T01:06:12;17.15;;;15.65;;
6249;SDS011;3158;52.148;11.568;2022-07-01T01:11:13;17.83;;;16.02;;
6249;SDS011;3158;52.148;11.568;2022-07-01T01:16:16;15.73;;;14.32;;
6249;SDS011;3158;52.148;11.568;2022-07-01T01:21:17;17.70;;;16.27;;
6249;SDS011;3158;52.148;11.568;2022-07-01T01:26:20;18.23;;;16.63;;
6249;SDS011;3158;52.148;11.568;2022-07-01T01:31:28;17.73;;;15.95;;
6249;SDS011;3158;52.148;11.568;2022-07-01T01:36:29;16.67;;;15.02;;
6249;SDS011;3158;52.148;11.568;2022-07-01T01:41:30;17.75;;;16.15;;
6249;SDS011;3158;52.148;11.568;2022-07-01T01:46:31;18.55;;;16.80;;
6249;SDS011;3158;52.148;11.568;2022-07-01T01:51:33;18.25;;;16.70;;
6249;SDS011;3158;52.148;11.568;2022-07-01T01:56:34;20.85;;;17.30;;
6249;SDS011;3158;52.148;11.568;2022-07-01T02:01:35;16.48;;;14.80;;
6249;SDS011;3158;52.148;11.568;2022-07-01T02:06:36;7.22;;;6.68;;
6249;SDS011;3158;52.148;11.568;2022-07-01T02:11:37;2.80;;;2.60;;
6249;SDS011;3158;52.148;11.568;2022-07-01T02:16:38;2.28;;;2.10;;
6249;SDS011;3158;52.148;11.568;2022-07-01T02:21:39;2.60;;;2.22;;
6249;SDS011;3158;52.148;11.568;2022-07-01T02:26:40;2.90;;;2.38;;
6249;SDS011;3158;52.148;11.568;2022-07-01T02:31:41;2.15;;;1.88;;
6249;SDS011;3158;52.148;11.568;2022-07-01T02:36:42;3.60;;;2.35;;
6249;SDS011;3158;52.148;11.568;2022-07-01T02:41:43;3.33;;;2.80;;
6249;SDS011;3158;52.148;11.568;2022-07-01T02:47:03;4.60;;;3.47;;
6249;SDS011;3158;52.148;11.568;2022-07-01T02:52:05;3.53;;;3.03;;
6249;SDS011;3158;52.148;11.568;2022-07-01T02:57:07;3.25;;;2.97;;
6249;SDS011;3158;52.148;11.568;2022-07-01T03:02:09;4.18;;;3.88;;
6249;SDS011;3158;52.148;11.568;2022-07-01T03:07:10;7.13;;;4.05;;
6249;SDS011;3158;52.148;11.568;2022-07-01T03:12:11;5.32;;;3.80;;
6249;SDS011;3158;52.148;11.568;2022-07-01T03:17:25;5.95;;;5.43;;
6249;SDS011;3158;52.148;11.568;2022-07-01T03:22:27;7.70;;;7.10;;
6249;SDS011;3158;52.148;11.568;2022-07-01T03:27:29;7.65;;;7.13;;
6249;SDS011;3158;52.148;11.568;2022-07-01T03:32:30;9.48;;;8.30;;
6249;SDS011;3158;52.148;11.568;2022-07-01T03:37:31;8.63;;;8.00;;
6249;SDS011;3158;52.148;11.568;2022-07-01T03:42:32;8.27;;;7.43;;
6249;SDS011;3158;52.148;11.568;2022-07-01T03:47:33;11.23;;;7.85;;
6249;SDS011;3158;52.148;11.568;2022-07-01T03:52:34;8.65;;;7.70;;
6249;SDS011;3158;52.148;11.568;2022-07-01T03:57:35;9.48;;;8.25;;
6249;SDS011;3158;52.148;11.568;2022-07-01T04:02:36;7.60;;;7.05;;
6249;SDS011;3158;52.148;11.568;2022-07-01T04:07:37;6.43;;;6.03;;
6249;SDS011;3158;52.148;11.568;2022-07-01T04:12:38;7.90;;;7.10;;
6249;SDS011;3158;52.148;11.568;2022-07-01T04:17:39;8.43;;;7.90;;
6249;SDS011;3158;52.148;11.568;2022-07-01T04:22:42;9.90;;;9.15;;
6249;SDS011;3158;52.148;11.568;2022-07-01T04:27:43;11.80;;;10.60;;
6249;SDS011;3158;52.148;11.568;2022-07-01T04:32:44;13.63;;;12.63;;
6249;SDS011;3158;52.148;11.568;2022-07-01T04:37:45;11.00;;;10.32;;
6249;SDS011;3158;52.148;11.568;2022-07-01T04:42:46;7.60;;;7.20;;
6249;SDS011;3158;52.148;11.568;2022-07-01T04:47:47;6.20;;;6.00;;
6249;SDS011;3158;52.148;11.568;2022-07-01T04:52:48;6.47;;;6.25;;
6249;SDS011;3158;52.148;11.568;2022-07-01T04:57:49;8.40;;;7.88;;
6249;SDS011;3158;52.148;11.568;2022-07-01T05:02:50;8.93;;;8.43;;
6249;SDS011;3158;52.148;11.568;2022-07-01T05:07:51;9.88;;;9.20;;
6249;SDS011;3158;52.148;11.568;2022-07-01T05:12:52;10.88;;;10.23;;
6249;SDS011;3158;52.148;11.568;2022-07-01T05:17:53;11.70;;;10.90;;
6249;SDS011;3158;52.148;11.568;2022-07-01T05:23:14;12.50;;;10.85;;
6249;SDS011;3158;52.148;11.568;2022-07-01T05:28:15;9.10;;;8.48;;
6249;SDS011;3158;52.148;11.568;2022-07-01T05:33:16;8.48;;;7.85;;
6249;SDS011;3158;52.148;11.568;2022-07-01T05:38:18;6.82;;;6.32;;
6249;SDS011;3158;52.148;11.568;2022-07-01T05:43:19;6.25;;;5.93;;
6249;SDS011;3158;52.148;11.568;2022-07-01T05:48:20;7.25;;;4.07;;
6249;SDS011;3158;52.148;11.568;2022-07-01T05:53:22;3.58;;;3.47;;
6249;SDS011;3158;52.148;11.568;2022-07-01T05:58:23;2.60;;;2.60;;
6249;SDS011;3158;52.148;11.568;2022-07-01T06:03:24;2.25;;;2.25;;
6249;SDS011;3158;52.148;11.568;2022-07-01T06:08:25;4.00;;;2.55;;
6249;SDS011;3158;52.148;11.568;2022-07-01T06:13:26;1.20;;;1.20;;
6249;SDS011;3158;52.148;11.568;2022-07-01T06:18:29;2.15;;;1.17;;
6249;SDS011;3158;52.148;11.568;2022-07-01T06:23:30;1.27;;;1.27;;
6249;SDS011;3158;52.148;11.568;2022-07-01T06:28:31;2.08;;;1.17;;
6249;SDS011;3158;52.148;11.568;2022-07-01T06:33:32;1.45;;;1.45;;
6249;SDS011;3158;52.148;11.568;2022-07-01T06:38:33;2.10;;;2.10;;
6249;SDS011;3158;52.148;11.568;2022-07-01T06:43:34;2.25;;;2.00;;
6249;SDS011;3158;52.148;11.568;2022-07-01T06:48:36;1.60;;;1.50;;
6249;SDS011;3158;52.148;11.568;2022-07-01T06:53:37;1.48;;;1.38;;
6249;SDS011;3158;52.148;11.568;2022-07-01T06:58:38;1.42;;;1.42;;
6249;SDS011;3158;52.148;11.568;2022-07-01T07:03:39;1.58;;;1.58;;
6249;SDS011;3158;52.148;11.568;2022-07-01T07:08:40;2.13;;;2.13;;
6249;SDS011;3158;52.148;11.568;2022-07-01T07:13:42;2.70;;;2.60;;
6249;SDS011;3158;52.148;11.568;2022-07-01T07:18:43;3.03;;;2.95;;
6249;SDS011;3158;52.148;11.568;2022-07-01T07:23:44;2.63;;;2.63;;
6249;SDS011;3158;52.148;11.568;2022-07-01T07:28:45;2.88;;;2.67;;
6249;SDS011;3158;52.148;11.568;2022-07-01T07:33:46;3.88;;;2.83;;
6249;SDS011;3158;52.148;11.568;2022-07-01T07:38:47;2.60;;;2.60;;
6249;SDS011;3158;52.148;11.568;2022-07-01T07:43:48;2.42;;;2.38;;
6249;SDS011;3158;52.148;11.568;2022-07-01T07:48:49;7.43;;;3.13;;
6249;SDS011;3158;52.148;11.568;2022-07-01T07:53:51;3.40;;;3.13;;
6249;SDS011;3158;52.148;11.568;2022-07-01T07:58:52;4.20;;;4.10;;
6249;SDS011;3158;52.148;11.568;2022-07-01T08:03:53;4.40;;;4.18;;
6249;SDS011;3158;52.148;11.568;2022-07-01T08:08:54;6.03;;;5.05;;
6249;SDS011;3158;52.148;11.568;2022-07-01T08:13:56;5.32;;;5.07;;
6249;SDS011;3158;52.148;11.568;2022-07-01T08:18:57;5.03;;;4.93;;
6249;SDS011;3158;52.148;11.568;2022-07-01T08:23:58;5.60;;;5.40;;
6249;SDS011;3158;52.148;11.568;2022-07-01T08:28:59;4.97;;;4.78;;
6249;SDS011;3158;52.148;11.568;2022-07-01T08:34:00;6.28;;;5.97;;
6249;SDS011;3158;52.148;11.568;2022-07-01T08:39:02;5.93;;;5.57;;
6249;SDS011;3158;52.148;11.568;2022-07-01T08:44:04;4.20;;;4.10;;
6249;SDS011;3158;52.148;11.568;2022-07-01T08:49:05;4.72;;;4.07;;
6249;SDS011;3158;52.148;11.568;2022-07-01T08:54:07;5.88;;;5.50;;
6249;SDS011;3158;52.148;11.568;2022-07-01T08:59:08;4.60;;;4.50;;
6249;SDS011;3158;52.148;11.568;2022-07-01T09:04:15;4.45;;;4.25;;
6249;SDS011;3158;52.148;11.568;2022-07-01T09:09:17;4.22;;;3.88;;
6249;SDS011;3158;52.148;11.568;2022-07-01T09:14:29;4.43;;;3.50;;
6249;SDS011;3158;52.148;11.568;2022-07-01T09:19:39;4.35;;;4.05;;
6249;SDS011;3158;52.148;11.568;2022-07-01T09:24:41;3.85;;;3.55;;
6249;SDS011;3158;52.148;11.568;2022-07-01T09:29:43;4.75;;;4.30;;
6249;SDS011;3158;52.148;11.568;2022-07-01T09:34:45;5.10;;;4.85;;
6249;SDS011;3158;52.148;11.568;2022-07-01T09:39:47;4.95;;;4.85;;
6249;SDS011;3158;52.148;11.568;2022-07-01T09:50:04;5.90;;;5.63;;
6249;SDS011;3158;52.148;11.568;2022-07-01T09:55:06;6.20;;;5.95;;
6249;SDS011;3158;52.148;11.568;2022-07-01T10:00:07;6.97;;;6.40;;
6249;SDS011;3158;52.148;11.568;2022-07-01T10:05:09;6.25;;;5.95;;
6249;SDS011;3158;52.148;11.568;2022-07-01T10:15:22;6.57;;;6.15;;
6249;SDS011;3158;52.148;11.568;2022-07-01T10:20:24;6.53;;;6.15;;
6249;SDS011;3158;52.148;11.568;2022-07-01T10:25:33;6.43;;;5.82;;
6249;SDS011;3158;52.148;11.568;2022-07-01T10:30:35;5.15;;;4.70;;
6249;SDS011;3158;52.148;11.568;2022-07-01T10:35:36;4.30;;;4.20;;
6249;SDS011;3158;52.148;11.568;2022-07-01T10:45:45;3.90;;;3.60;;
6249;SDS011;3158;52.148;11.568;2022-07-01T10:50:46;2.95;;;2.80;;
6249;SDS011;3158;52.148;11.568;2022-07-01T10:55:48;2.15;;;2.03;;
6249;SDS011;3158;52.148;11.568;2022-07-01T11:00:50;2.60;;;2.35;;
6249;SDS011;3158;52.148;11.568;2022-07-01T11:05:53;3.00;;;2.90;;
6249;SDS011;3158;52.148;11.568;2022-07-01T11:10:55;2.97;;;2.88;;
6249;SDS011;3158;52.148;11.568;2022-07-01T11:15:57;3.15;;;3.05;;
6249;SDS011;3158;52.148;11.568;2022-07-01T11:21:08;4.63;;;4.32;;
6249;SDS011;3158;52.148;11.568;2022-07-01T11:26:22;4.88;;;4.18;;
6249;SDS011;3158;52.148;11.568;2022-07-01T11:31:28;5.60;;;5.30;;
6249;SDS011;3158;52.148;11.568;2022-07-01T11:36:29;5.60;;;5.30;;
6249;SDS011;3158;52.148;11.568;2022-07-01T11:41:53;4.20;;;4.00;;
6249;SDS011;3158;52.148;11.568;2022-07-01T11:46:54;3.58;;;3.47;;
6249;SDS011;3158;52.148;11.568;2022-07-01T11:51:56;5.10;;;4.80;;
6249;SDS011;3158;52.148;11.568;2022-07-01T11:57:07;4.43;;;4.22;;
6249;SDS011;3158;52.148;11.568;2022-07-01T12:02:09;5.10;;;4.90;;
6249;SDS011;3158;52.148;11.568;2022-07-01T12:07:12;4.70;;;4.50;;
6249;SDS011;3158;52.148;11.568;2022-07-01T12:12:20;4.75;;;4.53;;
6249;SDS011;3158;52.148;11.568;2022-07-01T12:17:24;4.82;;;4.60;;
6249;SDS011;3158;52.148;11.568;2022-07-01T12:22:27;4.80;;;4.70;;
6249;SDS011;3158;52.148;11.568;2022-07-01T12:27:28;5.85;;;5.55;;
6249;SDS011;3158;52.148;11.568;2022-07-01T12:32:29;5.72;;;5.53;;
6249;SDS011;3158;52.148;11.568;2022-07-01T12:37:32;5.43;;;5.18;;
6249;SDS011;3158;52.148;11.568;2022-07-01T12:52:35;4.90;;;4.63;;
6249;SDS011;3158;52.148;11.568;2022-07-01T12:57:37;5.53;;;5.15;;
6249;SDS011;3158;52.148;11.568;2022-07-01T13:02:38;4.78;;;4.63;;
6249;SDS011;3158;52.148;11.568;2022-07-01T13:07:39;4.47;;;4.38;;
6249;SDS011;3158;52.148;11.568;2022-07-01T13:12:40;5.47;;;5.18;;
6249;SDS011;3158;52.148;11.568;2022-07-01T13:17:42;4.40;;;4.15;;
6249;SDS011;3158;52.148;11.568;2022-07-01T13:22:44;5.13;;;4.97;;
6249;SDS011;3158;52.148;11.568;2022-07-01T13:27:45;3.88;;;3.80;;
6249;SDS011;3158;52.148;11.568;2022-07-01T13:32:47;4.75;;;4.60;;
6249;SDS011;3158;52.148;11.568;2022-07-01T13:37:52;4.07;;;3.97;;
6249;SDS011;3158;52.148;11.568;2022-07-01T13:42:53;4.35;;;4.25;;
6249;SDS011;3158;52.148;11.568;2022-07-01T13:47:54;4.28;;;4.15;;
6249;SDS011;3158;52.148;11.568;2022-07-01T13:52:55;4.63;;;4.32;;
6249;SDS011;3158;52.148;11.568;2022-07-01T13:57:56;4.72;;;4.50;;
6249;SDS011;3158;52.148;11.568;2022-07-01T14:02:57;5.57;;;5.28;;
6249;SDS011;3158;52.148;11.568;2022-07-01T14:07:58;5.50;;;5.10;;
6249;SDS011;3158;52.148;11.568;2022-07-01T14:13:00;6.32;;;5.85;;
6249;SDS011;3158;52.148;11.568;2022-07-01T14:18:01;6.45;;;6.05;;
6249;SDS011;3158;52.148;11.568;2022-07-01T14:23:02;6.95;;;6.57;;
6249;SDS011;3158;52.148;11.568;2022-07-01T14:28:03;7.50;;;6.82;;
6249;SDS011;3158;52.148;11.568;2022-07-01T14:33:04;8.07;;;7.57;;
6249;SDS011;3158;52.148;11.568;2022-07-01T14:38:05;7.00;;;6.70;;
6249;SDS011;3158;52.148;11.568;2022-07-01T14:43:06;7.22;;;6.80;;
6249;SDS011;3158;52.148;11.568;2022-07-01T14:48:08;7.93;;;7.32;;
6249;SDS011;3158;52.148;11.568;2022-07-01T14:53:09;7.22;;;6.82;;
6249;SDS011;3158;52.148;11.568;2022-07-01T14:58:10;6.93;;;6.53;;
6249;SDS011;3158;52.148;11.568;2022-07-01T15:03:11;7.32;;;6.65;;
6249;SDS011;3158;52.148;11.568;2022-07-01T15:08:12;8.27;;;7.70;;
6249;SDS011;3158;52.148;11.568;2022-07-01T15:13:14;7.50;;;7.10;;
6249;SDS011;3158;52.148;11.568;2022-07-01T15:18:15;7.93;;;7.38;;
6249;SDS011;3158;52.148;11.568;2022-07-01T15:23:16;8.20;;;7.70;;
6249;SDS011;3158;52.148;11.568;2022-07-01T15:28:17;8.88;;;8.07;;
6249;SDS011;3158;52.148;11.568;2022-07-01T15:33:18;8.20;;;7.70;;
6249;SDS011;3158;52.148;11.568;2022-07-01T15:38:19;10.10;;;9.30;;
6249;SDS011;3158;52.148;11.568;2022-07-01T15:43:20;9.18;;;8.43;;
6249;SDS011;3158;52.148;11.568;2022-07-01T15:48:22;11.82;;;10.95;;
6249;SDS011;3158;52.148;11.568;2022-07-01T15:53:23;13.55;;;12.25;;
6249;SDS011;3158;52.148;11.568;2022-07-01T15:58:24;15.80;;;14.38;;
6249;SDS011;3158;52.148;11.568;2022-07-01T16:03:25;15.30;;;13.98;;
6249;SDS011;3158;52.148;11.568;2022-07-01T16:08:33;15.50;;;14.20;;
6249;SDS011;3158;52.148;11.568;2022-07-01T16:13:34;13.63;;;12.40;;
6249;SDS011;3158;52.148;11.568;2022-07-01T16:18:36;14.10;;;12.80;;
6249;SDS011;3158;52.148;11.568;2022-07-01T16:23:38;13.48;;;12.18;;
6249;SDS011;3158;52.148;11.568;2022-07-01T16:28:41;13.40;;;12.15;;
6249;SDS011;3158;52.148;11.568;2022-07-01T16:33:43;11.10;;;10.07;;
6249;SDS011;3158;52.148;11.568;2022-07-01T16:43:55;11.05;;;10.23;;
6249;SDS011;3158;52.148;11.568;2022-07-01T16:48:57;9.32;;;8.55;;
6249;SDS011;3158;52.148;11.568;2022-07-01T16:54:00;6.55;;;6.15;;
6249;SDS011;3158;52.148;11.568;2022-07-01T16:59:02;6.30;;;6.00;;
6249;SDS011;3158;52.148;11.568;2022-07-01T17:04:03;4.93;;;4.70;;
6249;SDS011;3158;52.148;11.568;2022-07-01T17:09:04;4.95;;;4.50;;
6249;SDS011;3158;52.148;11.568;2022-07-01T17:14:07;5.47;;;5.03;;
6249;SDS011;3158;52.148;11.568;2022-07-01T17:19:09;4.20;;;3.28;;
6249;SDS011;3158;52.148;11.568;2022-07-01T17:24:11;4.50;;;4.20;;
6249;SDS011;3158;52.148;11.568;2022-07-01T17:29:12;3.75;;;3.63;;
6249;SDS011;3158;52.148;11.568;2022-07-01T17:34:15;3.20;;;3.00;;
6249;SDS011;3158;52.148;11.568;2022-07-01T17:39:16;3.20;;;3.10;;
6249;SDS011;3158;52.148;11.568;2022-07-01T17:44:17;4.18;;;3.53;;
6249;SDS011;3158;52.148;11.568;2022-07-01T17:49:21;5.45;;;3.40;;
6249;SDS011;3158;52.148;11.568;2022-07-01T17:54:24;4.78;;;3.70;;
6249;SDS011;3158;52.148;11.568;2022-07-01T17:59:25;3.78;;;3.58;;
6249;SDS011;3158;52.148;11.568;2022-07-01T18:04:27;5.78;;;3.80;;
6249;SDS011;3158;52.148;11.568;2022-07-01T18:09:29;4.07;;;3.70;;
6249;SDS011;3158;52.148;11.568;2022-07-01T18:19:44;4.32;;;4.00;;
6249;SDS011;3158;52.148;11.568;2022-07-01T18:24:51;4.50;;;4.30;;
6249;SDS011;3158;52.148;11.568;2022-07-01T18:29:53;5.35;;;5.05;;
6249;SDS011;3158;52.148;11.568;2022-07-01T18:34:59;5.68;;;5.18;;
6249;SDS011;3158;52.148;11.568;2022-07-01T18:40:00;5.20;;;4.93;;
6249;SDS011;3158;52.148;11.568;2022-07-01T18:45:02;4.82;;;4.43;;
6249;SDS011;3158;52.148;11.568;2022-07-01T18:50:04;3.97;;;3.88;;
6249;SDS011;3158;52.148;11.568;2022-07-01T18:55:07;4.38;;;4.03;;
6249;SDS011;3158;52.148;11.568;2022-07-01T19:00:13;7.55;;;4.68;;
6249;SDS011;3158;52.148;11.568;2022-07-01T19:05:14;4.78;;;4.32;;
6249;SDS011;3158;52.148;11.568;2022-07-01T19:10:16;4.15;;;3.95;;
6249;SDS011;3158;52.148;11.568;2022-07-01T19:15:18;4.55;;;4.40;;
6249;SDS011;3158;52.148;11.568;2022-07-01T19:20:19;5.65;;;4.78;;
6249;SDS011;3158;52.148;11.568;2022-07-01T19:25:20;4.90;;;4.80;;
6249;SDS011;3158;52.148;11.568;2022-07-01T19:30:21;5.55;;;5.13;;
6249;SDS011;3158;52.148;11.568;2022-07-01T19:35:23;5.40;;;4.90;;
6249;SDS011;3158;52.148;11.568;2022-07-01T19:40:24;6.72;;;6.35;;
6249;SDS011;3158;52.148;11.568;2022-07-01T19:45:26;6.25;;;5.88;;
6249;SDS011;3158;52.148;11.568;2022-07-01T19:50:27;8.27;;;7.35;;
6249;SDS011;3158;52.148;11.568;2022-07-01T19:55:28;10.55;;;7.78;;
6249;SDS011;3158;52.148;11.568;2022-07-01T20:00:29;7.72;;;7.30;;
6249;SDS011;3158;52.148;11.568;2022-07-01T20:05:31;9.55;;;7.20;;
6249;SDS011;3158;52.148;11.568;2022-07-01T20:10:32;9.02;;;8.40;;
6249;SDS011;3158;52.148;11.568;2022-07-01T20:15:34;8.40;;;7.95;;
6249;SDS011;3158;52.148;11.568;2022-07-01T20:20:35;9.68;;;8.68;;
6249;SDS011;3158;52.148;11.568;2022-07-01T20:25:36;12.27;;;9.93;;
6249;SDS011;3158;52.148;11.568;2022-07-01T20:30:37;11.32;;;10.35;;
6249;SDS011;3158;52.148;11.568;2022-07-01T20:35:38;11.57;;;10.23;;
6249;SDS011;3158;52.148;11.568;2022-07-01T20:40:39;12.98;;;11.68;;
6249;SDS011;3158;52.148;11.568;2022-07-01T20:45:40;13.30;;;11.95;;
6249;SDS011;3158;52.148;11.568;2022-07-01T20:50:42;12.80;;;11.73;;
6249;SDS011;3158;52.148;11.568;2022-07-01T20:55:43;14.77;;;13.40;;
6249;SDS011;3158;52.148;11.568;2022-07-01T21:00:44;14.90;;;13.43;;
6249;SDS011;3158;52.148;11.568;2022-07-01T21:05:48;14.43;;;13.07;;
6249;SDS011;3158;52.148;11.568;2022-07-01T21:10:49;15.20;;;13.80;;
6249;SDS011;3158;52.148;11.568;2022-07-01T21:15:50;17.05;;;15.48;;
6249;SDS011;3158;52.148;11.568;2022-07-01T21:20:51;17.77;;;16.05;;
6249;SDS011;3158;52.148;11.568;2022-07-01T21:25:53;17.65;;;15.88;;
6249;SDS011;3158;52.148;11.568;2022-07-01T21:30:56;19.55;;;17.60;;
6249;SDS011;3158;52.148;11.568;2022-07-01T21:36:02;17.92;;;16.23;;
6249;SDS011;3158;52.148;11.568;2022-07-01T21:41:03;18.77;;;17.00;;
6249;SDS011;3158;52.148;11.568;2022-07-01T21:46:07;19.67;;;17.60;;
6249;SDS011;3158;52.148;11.568;2022-07-01T21:51:12;23.70;;;18.77;;
6249;SDS011;3158;52.148;11.568;2022-07-01T21:56:14;22.27;;;20.05;;
6249;SDS011;3158;52.148;11.568;2022-07-01T22:01:19;22.13;;;19.90;;
6249;SDS011;3158;52.148;11.568;2022-07-01T22:06:20;20.95;;;18.67;;
6249;SDS011;3158;52.148;11.568;2022-07-01T22:11:22;20.20;;;18.15;;
6249;SDS011;3158;52.148;11.568;2022-07-01T22:16:24;21.48;;;19.30;;
6249;SDS011;3158;52.148;11.568;2022-07-01T22:21:27;18.48;;;16.58;;
6249;SDS011;3158;52.148;11.568;2022-07-01T22:26:28;18.08;;;16.38;;
6249;SDS011;3158;52.148;11.568;2022-07-01T22:31:30;18.42;;;16.52;;
6249;SDS011;3158;52.148;11.568;2022-07-01T22:36:32;16.60;;;15.02;;
6249;SDS011;3158;52.148;11.568;2022-07-01T22:41:33;18.33;;;15.52;;
6249;SDS011;3158;52.148;11.568;2022-07-01T22:56:52;18.77;;;15.13;;
6249;SDS011;3158;52.148;11.568;2022-07-01T23:01:57;16.45;;;14.85;;
6249;SDS011;3158;52.148;11.568;2022-07-01T23:07:59;17.98;;;15.88;;
6249;SDS011;3158;52.148;11.568;2022-07-01T23:12:44;18.25;;;14.93;;
6249;SDS011;3158;52.148;11.568;2022-07-01T23:17:46;17.70;;;16.00;;
6249;SDS011;3158;52.148;11.568;2022-07-01T23:22:51;15.93;;;14.40;;
6249;SDS011;3158;52.148;11.568;2022-07-01T23:27:53;16.40;;;14.73;;
6249;SDS011;3158;52.148;11.568;2022-07-01T23:32:55;16.92;;;15.20;;
6249;SDS011;3158;52.148;11.568;2022-07-01T23:37:57;20.02;;;15.93;;
6249;SDS011;3158;52.148;11.568;2022-07-01T23:42:58;16.38;;;14.77;;
6249;SDS011;3158;52.148;11.568;2022-07-01T23:47:59;19.77;;;15.52;;
6249;SDS011;3158;52.148;11.568;2022-07-01T23:53:00;17.75;;;15.02;;
6249;SDS011;3158;52.148;11.568;2022-07-01T23:58:01;14.18;;;12.75;;
